Time;durP1;ratioP1;P1;durP2;ratioP2;P2;SDS_P1;SDS_P2;PMS_P1;PMS_P2;Temp;Humidity;BMP_temperature;BMP_pressure;BME280_temperature;BME280_humidity;BME280_pressure;Samples;Min_cycle;Max_cycle;Signal;HPM_P1;HPM_P2
2023/04/14 00:00:27;;;;;;;8.75;2.30;;;5.80;99.90;;;;;;5063558;28;20028;-68
2023/04/14 00:02:53;;;;;;;4.75;2.35;;;5.70;99.90;;;;;;5070034;28;20056;-68
2023/04/14 00:05:19;;;;;;;6.97;2.20;;;5.70;99.90;;;;;;5053138;28;20033;-70
2023/04/14 00:07:44;;;;;;;7.15;2.85;;;5.60;99.90;;;;;;5074282;28;20046;-66
2023/04/14 00:10:10;;;;;;;7.43;2.47;;;5.60;99.90;;;;;;5059309;28;20033;-69
2023/04/14 00:12:36;;;;;;;5.82;2.00;;;5.50;99.90;;;;;;5081039;28;20085;-69
2023/04/14 00:15:02;;;;;;;6.35;2.85;;;5.50;99.90;;;;;;5074573;28;20021;-69
2023/04/14 00:17:27;;;;;;;4.50;2.38;;;5.40;99.90;;;;;;5087423;28;20480;-69
2023/04/14 00:19:53;;;;;;;5.22;2.30;;;5.40;99.90;;;;;;5074755;28;20036;-69
2023/04/14 00:22:20;;;;;;;8.02;2.88;;;5.30;99.90;;;;;;5074776;28;20116;-69
2023/04/14 00:24:46;;;;;;;5.60;2.75;;;5.30;99.90;;;;;;5072945;28;20067;-69
2023/04/14 00:27:12;;;;;;;6.70;2.58;;;5.30;99.90;;;;;;5084972;28;20051;-69
2023/04/14 00:29:38;;;;;;;5.82;2.60;;;5.20;99.90;;;;;;5075439;28;20530;-70
2023/04/14 00:32:06;;;;;;;7.60;3.28;;;5.20;99.90;;;;;;5075185;28;20033;-70
2023/04/14 00:34:33;;;;;;;4.93;2.58;;;5.10;99.90;;;;;;5071318;28;20033;-70
2023/04/14 00:36:58;;;;;;;6.15;2.50;;;5.10;99.90;;;;;;5091508;28;20024;-68
2023/04/14 00:39:24;;;;;;;9.27;3.22;;;5.00;99.90;;;;;;5074981;28;20047;-70
2023/04/14 00:41:50;;;;;;;7.88;3.33;;;5.00;99.90;;;;;;5075505;28;20056;-69
2023/04/14 00:44:16;;;;;;;7.28;3.42;;;5.00;99.90;;;;;;5078974;28;20043;-71
2023/04/14 00:46:42;;;;;;;9.30;3.45;;;5.00;99.90;;;;;;5079988;28;20028;-66
2023/04/14 00:49:08;;;;;;;6.28;2.88;;;5.00;99.90;;;;;;5074434;28;20032;-70
2023/04/14 00:51:35;;;;;;;8.48;2.70;;;4.90;99.90;;;;;;5087235;28;20035;-68
2023/04/14 00:54:08;;;;;;;7.55;3.13;;;4.90;99.90;;;;;;5073724;28;20031;-71
2023/04/14 00:56:34;;;;;;;9.52;2.67;;;4.90;99.90;;;;;;5074143;28;20024;-69
2023/04/14 00:59:01;;;;;;;7.03;2.95;;;4.90;99.90;;;;;;5082188;28;20041;-71
2023/04/14 01:01:30;;;;;;;9.85;2.97;;;4.80;99.90;;;;;;5085666;28;20028;-70
2023/04/14 01:03:57;;;;;;;7.38;2.80;;;4.70;99.90;;;;;;5073570;28;20098;-70
2023/04/14 01:06:22;;;;;;;7.72;2.78;;;4.70;99.90;;;;;;5073568;28;20056;-71
2023/04/14 01:08:49;;;;;;;7.65;2.50;;;4.60;99.90;;;;;;5073468;28;20075;-69
2023/04/14 01:11:29;;;;;;;9.88;3.05;;;4.60;99.90;;;;;;5075232;28;20035;-71
2023/04/14 01:14:01;;;;;;;;;;;4.50;99.90;;;;;;5074967;28;20082;-71
2023/04/14 01:16:31;;;;;;;6.10;2.95;;;4.50;99.90;;;;;;5076478;28;20017;-71
2023/04/14 01:19:25;;;;;;;7.75;2.42;;;4.40;99.90;;;;;;5072667;28;20041;-70
2023/04/14 01:21:56;;;;;;;9.55;2.63;;;4.40;99.90;;;;;;5067410;28;20032;-70
2023/04/14 01:24:39;;;;;;;10.18;3.10;;;4.40;99.90;;;;;;5078632;28;20554;-70
2023/04/14 01:27:26;;;;;;;6.85;2.30;;;4.30;99.90;;;;;;5075008;28;20054;-70
2023/04/14 01:30:16;;;;;;;8.95;3.03;;;4.30;99.90;;;;;;5074769;28;20033;-69
2023/04/14 01:32:44;;;;;;;8.40;3.38;;;4.30;99.90;;;;;;5077280;28;20036;-66
2023/04/14 01:35:16;;;;;;;7.60;3.15;;;4.30;99.90;;;;;;5082102;28;20024;-69
2023/04/14 01:37:48;;;;;;;11.38;4.10;;;4.20;99.90;;;;;;5053729;28;20517;-66
2023/04/14 01:40:16;;;;;;;6.15;2.83;;;4.20;99.90;;;;;;5074049;28;20089;-69
2023/04/14 01:42:46;;;;;;;9.82;3.53;;;4.20;99.90;;;;;;5072189;28;20017;-66
2023/04/14 01:45:19;;;;;;;8.45;3.22;;;4.10;99.90;;;;;;5074874;28;20043;-71
2023/04/14 01:47:46;;;;;;;5.70;3.13;;;4.10;99.90;;;;;;5070972;28;20028;-67
2023/04/14 01:50:13;;;;;;;7.32;3.45;;;4.10;99.90;;;;;;5080617;28;20389;-69
2023/04/14 01:52:42;;;;;;;7.18;3.42;;;4.00;99.90;;;;;;5073018;28;20028;-70
2023/04/14 01:55:08;;;;;;;12.40;3.25;;;4.00;99.90;;;;;;5080555;28;20020;-69
2023/04/14 01:57:36;;;;;;;7.88;2.92;;;3.90;99.90;;;;;;5083341;28;20036;-71
2023/04/14 02:00:03;;;;;;;11.00;3.30;;;3.90;99.90;;;;;;5076311;28;20044;-70
2023/04/14 02:02:31;;;;;;;7.50;2.72;;;3.90;99.90;;;;;;5072691;28;20029;-70
2023/04/14 02:04:57;;;;;;;9.10;2.88;;;3.80;99.90;;;;;;5073563;28;20430;-68
2023/04/14 02:07:25;;;;;;;13.23;2.60;;;3.80;99.90;;;;;;5077365;28;20034;-69
2023/04/14 02:09:52;;;;;;;6.25;2.40;;;3.70;99.90;;;;;;5074981;28;20032;-68
2023/04/14 02:12:19;;;;;;;11.88;3.60;;;3.70;99.90;;;;;;5074696;28;20029;-69
2023/04/14 02:14:46;;;;;;;10.63;2.85;;;3.80;99.90;;;;;;5084696;28;20039;-66
2023/04/14 02:17:12;;;;;;;11.25;3.53;;;3.80;99.90;;;;;;5081648;28;20029;-70
2023/04/14 02:19:41;;;;;;;14.73;3.95;;;3.80;99.90;;;;;;5073060;28;20085;-68
2023/04/14 02:22:07;;;;;;;10.00;3.42;;;3.80;99.90;;;;;;5078915;28;20039;-69
2023/04/14 02:24:32;;;;;;;8.95;3.08;;;3.80;99.90;;;;;;5074083;28;20032;-67
2023/04/14 02:27:06;;;;;;;11.52;3.15;;;3.80;99.90;;;;;;5065466;28;20035;-68
2023/04/14 02:29:32;;;;;;;12.00;2.85;;;3.70;99.90;;;;;;5073874;28;20599;-69
2023/04/14 02:32:16;;;;;;;13.30;2.83;;;3.70;99.90;;;;;;5073506;28;20025;-68
2023/04/14 02:34:51;;;;;;;10.93;3.45;;;3.70;99.90;;;;;;5074405;28;20032;-67
2023/04/14 02:37:24;;;;;;;9.85;2.63;;;3.70;99.90;;;;;;5075214;28;20222;-69
2023/04/14 02:39:57;;;;;;;10.70;2.92;;;3.70;99.90;;;;;;5072116;28;20033;-69
2023/04/14 02:42:27;;;;;;;11.15;3.25;;;3.60;99.90;;;;;;5073128;28;20028;-70
2023/04/14 02:45:01;;;;;;;9.77;2.72;;;3.50;99.90;;;;;;5073716;28;20036;-68
2023/04/14 02:47:34;;;;;;;12.93;3.10;;;3.50;99.90;;;;;;5072973;28;20499;-70
2023/04/14 02:50:02;;;;;;;11.88;3.00;;;3.40;99.90;;;;;;5071536;28;20033;-69
2023/04/14 02:52:30;;;;;;;6.13;2.60;;;3.50;99.90;;;;;;5071481;28;20090;-71
2023/04/14 02:54:57;;;;;;;11.15;3.33;;;3.30;99.90;;;;;;5072027;28;20031;-71
2023/04/14 02:57:24;;;;;;;7.78;3.08;;;3.30;99.90;;;;;;5075357;28;20031;-70
2023/04/14 02:59:51;;;;;;;8.63;3.17;;;3.20;99.90;;;;;;5072053;28;20051;-69
2023/04/14 03:02:19;;;;;;;7.78;2.88;;;3.20;99.90;;;;;;5071384;28;20040;-69
2023/04/14 03:04:45;;;;;;;10.75;3.20;;;3.10;99.90;;;;;;5072844;28;20032;-66
2023/04/14 03:07:13;;;;;;;10.63;3.33;;;3.10;99.90;;;;;;5074146;28;20469;-70
2023/04/14 03:09:40;;;;;;;7.22;2.80;;;3.00;99.90;;;;;;5071851;28;20024;-68
2023/04/14 03:12:06;;;;;;;10.32;3.05;;;3.10;99.90;;;;;;5069997;28;20032;-70
2023/04/14 03:14:34;;;;;;;12.30;2.70;;;3.00;99.90;;;;;;5076257;28;20028;-69
2023/04/14 03:17:01;;;;;;;14.20;2.72;;;3.00;99.90;;;;;;5070786;28;20075;-69
2023/04/14 03:19:28;;;;;;;9.68;2.95;;;3.00;99.90;;;;;;5071831;28;20044;-69
2023/04/14 03:21:55;;;;;;;9.77;3.10;;;3.00;99.90;;;;;;5075140;28;20042;-68
2023/04/14 03:24:26;;;;;;;10.50;3.60;;;3.00;99.90;;;;;;5071541;28;20033;-68
2023/04/14 03:26:58;;;;;;;8.88;2.60;;;3.00;99.90;;;;;;5080916;28;20046;-69
2023/04/14 03:29:28;;;;;;;12.35;3.15;;;2.90;99.90;;;;;;5071418;28;20388;-68
2023/04/14 03:31:59;;;;;;;13.95;3.53;;;2.90;99.90;;;;;;5071700;28;20032;-70
2023/04/14 03:34:30;;;;;;;10.77;3.08;;;2.80;99.90;;;;;;5072083;28;20516;-69
2023/04/14 03:36:57;;;;;;;15.55;3.92;;;;;;;;;;5069939;28;20032;-69
2023/04/14 03:39:29;;;;;;;14.40;3.45;;;2.80;99.90;;;;;;5071640;28;20036;-69
2023/04/14 03:41:57;;;;;;;7.97;3.30;;;2.80;99.90;;;;;;5072509;28;20461;-69
2023/04/14 03:44:26;;;;;;;11.65;2.83;;;2.80;99.90;;;;;;5063225;28;20024;-68
2023/04/14 03:46:53;;;;;;;8.95;3.13;;;2.90;99.90;;;;;;5073469;28;20082;-69
2023/04/14 03:49:20;;;;;;;8.90;3.38;;;2.90;99.90;;;;;;5071568;28;20033;-69
2023/04/14 03:51:48;;;;;;;11.18;3.00;;;2.90;99.90;;;;;;5072123;28;20453;-68
2023/04/14 03:54:16;;;;;;;12.07;3.15;;;2.90;99.90;;;;;;5079350;28;20056;-68
2023/04/14 03:56:45;;;;;;;12.85;4.00;;;2.90;99.90;;;;;;5070556;28;20029;-67
2023/04/14 03:59:14;;;;;;;16.85;4.25;;;2.90;99.90;;;;;;5079936;28;20028;-68
2023/04/14 04:01:40;;;;;;;14.65;3.28;;;2.90;99.90;;;;;;5074828;28;20024;-69
2023/04/14 04:04:06;;;;;;;10.35;3.20;;;2.90;99.90;;;;;;5070814;28;20058;-69
2023/04/14 04:06:33;;;;;;;9.45;3.45;;;2.90;99.90;;;;;;5076065;28;20036;-67
2023/04/14 04:09:00;;;;;;;11.60;3.15;;;2.80;99.90;;;;;;5074313;28;20050;-68
2023/04/14 04:11:27;;;;;;;7.70;3.13;;;2.80;99.90;;;;;;5073925;28;20040;-69
2023/04/14 04:13:55;;;;;;;10.23;3.17;;;2.70;99.90;;;;;;5070647;28;20459;-69
2023/04/14 04:16:23;;;;;;;9.40;3.00;;;2.70;99.90;;;;;;5070604;28;20032;-70
2023/04/14 04:18:50;;;;;;;10.05;3.33;;;2.60;99.90;;;;;;5075051;28;20040;-68
2023/04/14 04:21:18;;;;;;;10.93;3.38;;;2.60;99.90;;;;;;5068772;28;20039;-69
2023/04/14 04:23:47;;;;;;;10.77;3.10;;;2.60;99.90;;;;;;5070598;28;20037;-65
2023/04/14 04:26:13;;;;;;;12.90;3.80;;;2.50;99.90;;;;;;5072423;28;20048;-69
2023/04/14 04:28:40;;;;;;;7.75;3.30;;;2.40;99.90;;;;;;5074877;28;20068;-68
2023/04/14 04:31:08;;;;;;;6.93;3.28;;;2.40;99.90;;;;;;5072191;28;20036;-69
2023/04/14 04:33:34;;;;;;;10.68;4.18;;;;;;;;;;5072715;28;20103;-69
2023/04/14 04:36:00;;;;;;;19.10;6.20;;;;;;;;;;5071979;28;20043;-69
2023/04/14 04:38:26;;;;;;;18.63;7.63;;;;;;;;;;5070429;28;20087;-70
2023/04/14 04:40:52;;;;;;;18.23;4.95;;;;;;;;;;5069652;28;20056;-69
2023/04/14 04:43:18;;;;;;;18.35;4.70;;;;;;;;;;5070489;28;20380;-69
2023/04/14 04:45:57;;;;;;;16.98;4.22;;;;;;;;;;5070053;28;20477;-66
2023/04/14 04:48:23;;;;;;;13.60;4.07;;;;;;;;;;5071731;28;20032;-69
2023/04/14 04:50:49;;;;;;;9.88;3.47;;;;;;;;;;5068279;28;20112;-69
2023/04/14 04:53:15;;;;;;;20.23;4.60;;;;;;;;;;5079279;28;20112;-68
2023/04/14 04:55:41;;;;;;;11.93;3.90;;;;;;;;;;5072956;28;20425;-67
2023/04/14 04:58:08;;;;;;;10.85;3.80;;;;;;;;;;5071743;28;20048;-70
2023/04/14 05:00:34;;;;;;;24.58;4.43;;;;;;;;;;5073960;28;20032;-69
2023/04/14 05:03:00;;;;;;;10.88;3.75;;;;;;;;;;5073336;28;20086;-71
2023/04/14 05:05:26;;;;;;;12.95;3.78;;;;;;;;;;5082118;28;20028;-70
2023/04/14 05:07:52;;;;;;;9.05;3.75;;;;;;;;;;5072050;28;20029;-67
2023/04/14 05:10:18;;;;;;;10.85;3.75;;;;;;;;;;5076009;28;20039;-70
2023/04/14 05:12:44;;;;;;;13.88;4.00;;;;;;;;;;5055276;28;20548;-66
2023/04/14 05:15:10;;;;;;;9.88;3.45;;;;;;;;;;5073109;28;20103;-69
2023/04/14 05:17:37;;;;;;;10.15;3.88;;;;;;;;;;5073794;28;20063;-69
2023/04/14 05:20:04;;;;;;;12.20;3.80;;;;;;;;;;5072843;28;20685;-68
2023/04/14 05:22:31;;;;;;;13.70;4.20;;;;;;;;;;5078885;28;20020;-68
2023/04/14 05:24:57;;;;;;;16.73;4.25;;;;;;;;;;5070396;28;20024;-69
2023/04/14 05:27:23;;;;;;;12.43;4.50;;;;;;;;;;5078086;28;20035;-70
2023/04/14 05:29:49;;;;;;;16.08;4.03;;;;;;;;;;5072480;28;20028;-68
2023/04/14 05:32:15;;;;;;;11.60;3.90;;;;;;;;;;5070998;28;20064;-69
2023/04/14 05:34:41;;;;;;;19.10;4.53;;;;;;;;;;5074613;28;20034;-66
2023/04/14 05:37:07;;;;;;;15.05;4.07;;;;;;;;;;5073692;28;20027;-68
2023/04/14 05:39:34;;;;;;;10.40;4.20;;;;;;;;;;5082675;28;20024;-69
2023/04/14 05:42:00;;;;;;;10.38;4.03;;;;;;;;;;5073012;28;20021;-70
2023/04/14 05:44:26;;;;;;;13.85;4.80;;;;;;;;;;5074944;28;20022;-71
2023/04/14 05:46:52;;;;;;;19.35;5.75;;;;;;;;;;5075742;28;20020;-70
2023/04/14 05:49:18;;;;;;;16.50;5.20;;;;;;;;;;5074634;28;20487;-72
2023/04/14 05:51:44;;;;;;;13.85;5.47;;;;;;;;;;5071872;28;20024;-67
2023/04/14 05:54:10;;;;;;;17.65;5.05;;;;;;;;;;5075475;28;20077;-72
2023/04/14 05:56:36;;;;;;;14.63;5.22;;;;;;;;;;5072547;28;20104;-74
2023/04/14 05:59:02;;;;;;;13.43;5.18;;;;;;;;;;5071772;28;20738;-72
2023/04/14 06:01:28;;;;;;;18.25;5.93;;;;;;;;;;5072705;28;20024;-71
2023/04/14 06:03:54;;;;;;;22.83;8.20;;;;;;;;;;5072785;28;20021;-71
2023/04/14 06:06:20;;;;;;;17.10;7.63;;;;;;;;;;5077841;28;20106;-70
2023/04/14 06:08:46;;;;;;;11.15;6.63;;;;;;;;;;5067959;28;20063;-68
2023/04/14 06:11:13;;;;;;;19.35;5.75;;;;;;;;;;5083956;28;20028;-69
2023/04/14 06:13:39;;;;;;;14.73;5.28;;;;;;;;;;5063750;28;20123;-68
2023/04/14 06:16:05;;;;;;;13.40;4.78;;;;;;;;;;5069556;28;20620;-69
2023/04/14 06:18:31;;;;;;;12.98;4.57;;;;;;;;;;5073693;28;20423;-69
2023/04/14 06:20:57;;;;;;;8.98;3.95;;;;;;;;;;5071428;28;20518;-69
2023/04/14 06:23:25;;;;;;;11.48;4.65;;;;;;;;;;5067245;28;20033;-68
2023/04/14 06:25:51;;;;;;;14.05;3.75;;;;;;;;;;5079804;28;20024;-69
2023/04/14 06:28:18;;;;;;;8.30;3.00;;;;;;;;;;5072435;28;20369;-71
2023/04/14 06:30:44;;;;;;;8.57;3.25;;;;;;;;;;5056531;28;20314;-70
2023/04/14 06:33:10;;;;;;;7.50;3.28;;;;;;;;;;5080644;28;20013;-70
2023/04/14 06:35:36;;;;;;;10.73;3.95;;;;;;;;;;5071145;28;20047;-70
2023/04/14 06:38:02;;;;;;;9.68;4.00;;;;;;;;;;5062538;28;20041;-68
2023/04/14 06:40:28;;;;;;;15.95;4.68;;;;;;;;;;5067883;28;20150;-70
2023/04/14 06:42:54;;;;;;;13.38;4.07;;;;;;;;;;5080593;28;20020;-68
2023/04/14 06:45:21;;;;;;;9.02;3.40;;;;;;;;;;5075871;28;20469;-69
2023/04/14 06:47:46;;;;;;;9.80;3.50;;;;;;;;;;5072129;28;20385;-69
2023/04/14 06:50:13;;;;;;;14.30;4.00;;;;;;;;;;5073024;28;20028;-69
2023/04/14 06:52:39;;;;;;;9.32;3.25;;;;;;;;;;5071363;28;20059;-68
2023/04/14 06:55:05;;;;;;;10.70;3.50;;;;;;;;;;5074141;28;20055;-71
2023/04/14 06:57:31;;;;;;;8.90;2.83;;;;;;;;;;5084562;28;20028;-68
2023/04/14 06:59:57;;;;;;;9.65;3.45;;;;;;;;;;5074800;28;20081;-67
2023/04/14 07:02:23;;;;;;;7.90;2.90;;;;;;;;;;5070735;28;20033;-68
2023/04/14 07:04:48;;;;;;;10.80;3.10;;;6.40;99.90;;;;;;5071793;28;20108;-67
2023/04/14 07:07:14;;;;;;;9.40;3.53;;;6.50;99.90;;;;;;5074770;28;20388;-67
2023/04/14 07:09:43;;;;;;;12.45;4.00;;;6.50;99.90;;;;;;5071498;28;20024;-67
2023/04/14 07:12:13;;;;;;;12.98;4.22;;;6.70;99.90;;;;;;5070260;28;20104;-68
2023/04/14 07:14:39;;;;;;;17.40;3.75;;;6.80;99.90;;;;;;5066653;28;20035;-68
2023/04/14 07:17:05;;;;;;;9.75;3.90;;;6.80;99.90;;;;;;5073490;28;20028;-68
2023/04/14 07:19:31;;;;;;;6.72;3.13;;;6.80;99.90;;;;;;5071672;28;20444;-68
2023/04/14 07:21:57;;;;;;;10.40;3.80;;;6.90;99.90;;;;;;5072937;28;20028;-68
2023/04/14 07:24:22;;;;;;;8.18;3.53;;;7.00;99.90;;;;;;5072284;28;20043;-68
2023/04/14 07:26:48;;;;;;;11.07;3.63;;;7.10;99.90;;;;;;5070848;28;20059;-67
2023/04/14 07:29:15;;;;;;;8.88;3.60;;;7.20;99.90;;;;;;5075311;28;20031;-68
2023/04/14 07:31:41;;;;;;;9.23;3.10;;;7.20;99.90;;;;;;5069022;28;20553;-68
2023/04/14 07:34:07;;;;;;;11.07;3.65;;;7.30;99.90;;;;;;5068374;28;20119;-67
2023/04/14 07:36:33;;;;;;;12.50;3.80;;;7.40;99.90;;;;;;5077027;28;20108;-68
2023/04/14 07:38:59;;;;;;;10.70;3.25;;;7.60;99.90;;;;;;5089549;28;20055;-67
2023/04/14 07:41:25;;;;;;;10.00;3.22;;;7.70;99.90;;;;;;5090420;28;20051;-68
2023/04/14 07:43:54;;;;;;;8.02;2.90;;;7.80;99.90;;;;;;5091588;28;20027;-68
2023/04/14 07:46:20;;;;;;;9.68;3.58;;;7.80;99.90;;;;;;5098490;28;20043;-68
2023/04/14 07:48:46;;;;;;;13.10;4.15;;;8.00;99.90;;;;;;5084107;28;20431;-66
2023/04/14 07:51:11;;;;;;;13.55;4.22;;;8.30;99.90;;;;;;5091448;28;20063;-68
2023/04/14 07:53:41;;;;;;;11.50;4.43;;;8.20;99.90;;;;;;5092403;28;20032;-68
2023/04/14 07:56:07;;;;;;;15.40;4.03;;;8.30;99.90;;;;;;5093170;28;20147;-68
2023/04/14 07:58:32;;;;;;;10.40;4.15;;;8.30;99.90;;;;;;5090792;28;20103;-68
2023/04/14 08:00:58;;;;;;;11.27;3.50;;;8.40;99.90;;;;;;5089604;28;20121;-68
2023/04/14 08:03:24;;;;;;;11.93;3.42;;;8.40;99.90;;;;;;5095365;28;20035;-68
2023/04/14 08:05:51;;;;;;;9.50;3.55;;;8.40;99.90;;;;;;5087798;28;20520;-68
2023/04/14 08:08:17;;;;;;;8.48;3.08;;;8.40;99.90;;;;;;5087902;28;20059;-68
2023/04/14 08:10:42;;;;;;;10.18;3.35;;;8.50;99.90;;;;;;5096634;28;20511;-66
2023/04/14 08:13:08;;;;;;;14.68;4.53;;;8.50;99.90;;;;;;5090119;28;20044;-68
2023/04/14 08:15:34;;;;;;;9.18;3.95;;;8.60;99.90;;;;;;5083727;28;20385;-69
2023/04/14 08:18:00;;;;;;;12.68;4.20;;;8.70;99.90;;;;;;5087794;28;20032;-69
2023/04/14 08:20:26;;;;;;;9.15;4.43;;;8.70;99.90;;;;;;5091090;28;20032;-69
2023/04/14 08:22:51;;;;;;;9.52;3.97;;;8.90;99.90;;;;;;5092098;28;20092;-68
2023/04/14 08:25:17;;;;;;;11.60;3.72;;;9.00;99.90;;;;;;5093487;28;20032;-68
2023/04/14 08:27:43;;;;;;;8.65;3.20;;;9.10;99.90;;;;;;5091518;28;20047;-66
2023/04/14 08:30:09;;;;;;;12.30;3.50;;;9.40;99.90;;;;;;5096721;28;20031;-68
2023/04/14 08:32:35;;;;;;;13.40;3.55;;;9.50;99.90;;;;;;5095480;28;20055;-68
2023/04/14 08:35:01;;;;;;;10.32;3.42;;;9.50;99.90;;;;;;5101005;28;20311;-70
2023/04/14 08:37:26;;;;;;;11.45;4.07;;;9.60;99.90;;;;;;5096845;28;20058;-68
2023/04/14 08:39:52;;;;;;;13.18;3.90;;;9.70;99.90;;;;;;5096858;28;20032;-69
2023/04/14 08:42:20;;;;;;;13.45;3.85;;;9.70;99.90;;;;;;5096699;28;20028;-68
2023/04/14 08:44:46;;;;;;;10.57;3.15;;;9.80;99.90;;;;;;5100437;28;20485;-68
2023/04/14 08:47:13;;;;;;;12.45;4.03;;;9.90;99.90;;;;;;5102910;28;20066;-68
2023/04/14 08:49:44;;;;;;;14.80;3.63;;;10.00;99.90;;;;;;5094308;28;20028;-68
2023/04/14 08:52:11;;;;;;;7.70;2.80;;;10.30;99.90;;;;;;5099049;28;20028;-69
2023/04/14 08:54:40;;;;;;;9.43;3.10;;;10.20;99.90;;;;;;5095517;28;20102;-71
2023/04/14 08:57:11;;;;;;;10.80;2.97;;;10.40;99.90;;;;;;5101428;28;20039;-69
2023/04/14 08:59:37;;;;;;;13.75;3.08;;;10.50;99.90;;;;;;5094251;28;20035;-70
2023/04/14 09:02:06;;;;;;;10.02;1.63;;;10.60;99.90;;;;;;5093392;28;20021;-69
2023/04/14 09:04:34;;;;;;;7.97;1.92;;;10.60;99.90;;;;;;5095703;28;20085;-70
2023/04/14 09:07:01;;;;;;;7.43;1.50;;;10.60;99.90;;;;;;5092935;28;20028;-70
2023/04/14 09:09:28;;;;;;;10.30;1.75;;;10.80;99.90;;;;;;5093353;28;20507;-70
2023/04/14 09:11:53;;;;;;;8.02;1.45;;;10.90;99.90;;;;;;5091525;28;20032;-67
2023/04/14 09:14:20;;;;;;;9.27;1.42;;;10.90;99.90;;;;;;5097247;28;20138;-69
2023/04/14 09:16:47;;;;;;;7.55;1.48;;;10.90;99.90;;;;;;5077137;28;20161;-67
2023/04/14 09:19:14;;;;;;;6.32;1.35;;;10.70;99.90;;;;;;5091947;28;20059;-68
2023/04/14 09:21:40;;;;;;;4.03;1.50;;;10.60;99.90;;;;;;5094147;28;20028;-68
2023/04/14 09:24:06;;;;;;;5.55;1.48;;;10.90;99.90;;;;;;5093308;28;20042;-68
2023/04/14 09:26:32;;;;;;;9.02;1.50;;;10.90;99.90;;;;;;5091978;28;20024;-68
2023/04/14 09:28:58;;;;;;;7.60;1.58;;;11.00;99.90;;;;;;5088231;28;20139;-67
2023/04/14 09:31:24;;;;;;;6.25;1.10;;;11.20;99.90;;;;;;5091207;28;20473;-68
2023/04/14 09:33:50;;;;;;;8.27;1.40;;;11.30;99.90;;;;;;5089505;28;20024;-68
2023/04/14 09:36:21;;;;;;;8.50;1.98;;;11.30;98.40;;;;;;5092430;28;20036;-68
2023/04/14 09:38:48;;;;;;;7.78;1.70;;;11.40;99.40;;;;;;5091139;28;20052;-67
2023/04/14 09:41:18;;;;;;;10.23;2.00;;;11.40;99.20;;;;;;5092453;28;20398;-68
2023/04/14 09:43:44;;;;;;;7.60;1.60;;;11.40;99.50;;;;;;5101724;28;20051;-66
2023/04/14 09:46:10;;;;;;;3.97;1.42;;;11.30;98.80;;;;;;5085985;28;20035;-67
2023/04/14 09:48:52;;;;;;;6.82;1.63;;;11.30;97.60;;;;;;5092429;28;20044;-68
2023/04/14 09:51:31;;;;;;;6.40;1.88;;;11.40;98.90;;;;;;5093359;28;20095;-68
2023/04/14 09:54:02;;;;;;;9.35;1.75;;;11.40;99.30;;;;;;5095273;28;20020;-68
2023/04/14 09:56:28;;;;;;;10.32;2.10;;;11.70;98.20;;;;;;5101016;28;20036;-70
2023/04/14 09:58:58;;;;;;;7.20;1.88;;;11.80;97.90;;;;;;5092482;28;20375;-70
2023/04/14 10:01:27;;;;;;;9.02;2.20;;;;;;;;;;5092575;28;20031;-68
2023/04/14 10:03:52;;;;;;;10.35;2.22;;;11.90;98.20;;;;;;5091456;28;20036;-69
2023/04/14 10:06:21;;;;;;;7.93;1.90;;;12.20;97.00;;;;;;5099603;28;20023;-69
2023/04/14 10:08:51;;;;;;;9.90;2.05;;;12.30;97.00;;;;;;5096300;28;20064;-68
2023/04/14 10:11:23;;;;;;;10.25;2.28;;;12.40;97.70;;;;;;5092884;28;20032;-69
2023/04/14 10:14:00;;;;;;;10.27;2.25;;;12.60;98.40;;;;;;5092105;28;20024;-69
2023/04/14 10:16:26;;;;;;;10.13;2.33;;;12.80;97.80;;;;;;5098393;28;20036;-69
2023/04/14 10:18:53;;;;;;;5.65;1.80;;;12.90;96.10;;;;;;5094776;28;20356;-68
2023/04/14 10:21:21;;;;;;;8.35;2.20;;;12.90;96.40;;;;;;5097756;28;20050;-69
2023/04/14 10:23:47;;;;;;;6.75;1.85;;;13.10;95.60;;;;;;5091651;28;20028;-71
2023/04/14 10:26:14;;;;;;;9.55;2.42;;;13.40;94.80;;;;;;5093470;28;20366;-73
2023/04/14 10:28:50;;;;;;;6.93;2.10;;;13.50;93.60;;;;;;5092290;28;20028;-69
2023/04/14 10:31:18;;;;;;;7.03;1.92;;;;;;;;;;5086027;28;20040;-71
2023/04/14 10:33:45;;;;;;;9.85;2.30;;;14.20;99.90;;;;;;5091670;28;20487;-67
2023/04/14 10:36:12;;;;;;;8.38;2.50;;;14.10;95.50;;;;;;5092980;28;20053;-70
2023/04/14 10:38:41;;;;;;;9.48;2.45;;;14.30;95.50;;;;;;5092450;28;20062;-67
2023/04/14 10:41:06;;;;;;;7.03;1.88;;;14.40;95.60;;;;;;5098439;28;20035;-67
2023/04/14 10:43:35;;;;;;;7.78;2.22;;;14.60;94.70;;;;;;5088695;28;20024;-66
2023/04/14 10:46:01;;;;;;;9.98;2.53;;;14.40;93.70;;;;;;5084430;28;20043;-69
2023/04/14 10:48:37;;;;;;;10.07;2.00;;;13.90;94.30;;;;;;5084051;28;20066;-68
2023/04/14 10:51:09;;;;;;;7.95;2.60;;;13.40;94.60;;;;;;5090622;28;20048;-68
2023/04/14 10:53:43;;;;;;;8.63;2.47;;;13.00;95.20;;;;;;5086945;28;20138;-68
2023/04/14 10:56:10;;;;;;;10.15;2.42;;;12.80;95.60;;;;;;5099684;28;20028;-68
2023/04/14 10:58:36;;;;;;;10.57;2.00;;;13.00;96.30;;;;;;5093618;28;20028;-68
2023/04/14 11:01:40;;;;;;;10.88;2.35;;;13.30;96.10;;;;;;5093208;28;20678;-68
2023/04/14 11:04:18;;;;;;;9.15;2.00;;;13.60;93.50;;;;;;5091260;28;20077;-68
2023/04/14 11:06:51;;;;;;;7.95;2.03;;;13.70;93.00;;;;;;5090874;28;20032;-66
2023/04/14 11:09:24;;;;;;;8.48;2.45;;;13.90;92.20;;;;;;5079012;28;20119;-68
2023/04/14 11:11:50;;;;;;;7.82;1.80;;;13.80;92.30;;;;;;5089072;28;20032;-68
2023/04/14 11:14:17;;;;;;;8.05;2.28;;;13.80;92.10;;;;;;5097178;28;20028;-71
2023/04/14 11:16:44;;;;;;;5.70;1.70;;;14.20;90.80;;;;;;5084871;28;20020;-68
2023/04/14 11:19:14;;;;;;;9.75;2.03;;;14.50;90.00;;;;;;5092303;28;20036;-69
2023/04/14 11:21:49;;;;;;;8.90;1.70;;;14.40;90.20;;;;;;5092664;28;20028;-70
2023/04/14 11:24:15;;;;;;;4.80;1.48;;;14.10;90.50;;;;;;5091240;28;20271;-69
2023/04/14 11:26:46;;;;;;;8.85;1.90;;;14.00;89.50;;;;;;5093942;28;20074;-69
2023/04/14 11:29:12;;;;;;;9.35;2.08;;;14.10;90.50;;;;;;5085349;28;20038;-70
2023/04/14 11:31:38;;;;;;;6.30;1.63;;;14.40;89.70;;;;;;5102021;28;20032;-70
2023/04/14 11:34:07;;;;;;;4.38;1.75;;;14.70;88.50;;;;;;5098964;28;20024;-70
2023/04/14 11:36:38;;;;;;;6.50;1.83;;;14.60;88.40;;;;;;5090951;28;20020;-69
2023/04/14 11:39:07;;;;;;;7.18;2.03;;;14.40;86.90;;;;;;5090308;28;20194;-70
2023/04/14 11:41:33;;;;;;;7.05;1.70;;;14.20;86.00;;;;;;5091181;28;20059;-69
2023/04/14 11:43:59;;;;;;;7.82;1.77;;;14.30;83.40;;;;;;5088712;28;20055;-70
2023/04/14 11:46:25;;;;;;;8.30;1.88;;;14.70;82.90;;;;;;5087029;28;20044;-70
2023/04/14 11:48:56;;;;;;;5.93;1.58;;;15.20;80.50;;;;;;5095397;28;20035;-70
2023/04/14 11:51:31;;;;;;;5.65;1.45;;;15.30;78.20;;;;;;5090409;28;20040;-70
2023/04/14 11:53:57;;;;;;;5.75;1.58;;;15.00;79.70;;;;;;5090799;28;20032;-68
2023/04/14 11:56:23;;;;;;;5.45;1.30;;;14.70;80.60;;;;;;5098275;28;20024;-67
2023/04/14 11:58:51;;;;;;;3.10;1.50;;;14.40;80.20;;;;;;5086741;28;20132;-68
2023/04/14 12:01:22;;;;;;;6.55;1.63;;;14.20;80.50;;;;;;5088636;28;20020;-68
2023/04/14 12:03:48;;;;;;;5.18;1.50;;;13.90;81.10;;;;;;5089694;28;20070;-68
2023/04/14 12:06:14;;;;;;;5.35;1.60;;;13.90;80.40;;;;;;5090190;28;20052;-68
2023/04/14 12:08:40;;;;;;;4.38;1.30;;;13.90;80.60;;;;;;5095936;28;20102;-68
2023/04/14 12:11:12;;;;;;;5.50;1.70;;;14.10;79.60;;;;;;5095697;28;20477;-66
2023/04/14 12:13:43;;;;;;;6.93;1.65;;;14.60;79.80;;;;;;5103158;28;20020;-68
2023/04/14 12:16:09;;;;;;;;;;;14.80;78.80;;;;;;5097535;28;20059;-68
2023/04/14 12:18:34;;;;;;;9.65;1.75;;;14.80;79.50;;;;;;5091952;28;20007;-68
2023/04/14 12:21:02;;;;;;;6.50;1.85;;;15.20;79.50;;;;;;5094751;28;20074;-69
2023/04/14 12:23:28;;;;;;;4.97;1.50;;;15.50;77.60;;;;;;5094517;28;20108;-68
2023/04/14 12:25:53;;;;;;;4.88;1.30;;;15.50;76.50;;;;;;5094630;28;20107;-69
2023/04/14 12:28:28;;;;;;;3.35;1.17;;;15.60;76.10;;;;;;5093683;28;20032;-69
2023/04/14 12:31:02;;;;;;;7.82;1.80;;;15.40;75.50;;;;;;5088034;28;20043;-69
2023/04/14 12:33:29;;;;;;;10.32;2.00;;;15.20;75.40;;;;;;5090654;28;20036;-69
2023/04/14 12:36:06;;;;;;;4.15;1.40;;;15.30;76.10;;;;;;5086778;28;20032;-69
2023/04/14 12:38:33;;;;;;;4.45;1.60;;;16.20;75.70;;;;;;5084831;28;20044;-69
2023/04/14 12:41:01;;;;;;;4.60;1.17;;;;;;;;;;5093182;28;20065;-70
2023/04/14 12:43:28;;;;;;;5.47;1.33;;;;;;;;;;5094843;28;20024;-70
2023/04/14 12:45:54;;;;;;;4.90;1.65;;;;;;;;;;5092377;28;20047;-69
2023/04/14 12:48:21;;;;;;;6.38;2.17;;;;;;;;;;5100848;28;20361;-70
2023/04/14 12:50:47;;;;;;;5.18;1.55;;;;;;;;;;5098976;28;20028;-67
2023/04/14 12:53:23;;;;;;;4.70;1.58;;;;;;;;;;5088328;28;20078;-69
2023/04/14 12:56:06;;;;;;;3.90;1.50;;;;;;;;;;5097171;28;20115;-69
2023/04/14 12:58:33;;;;;;;3.25;1.23;;;;;;;;;;5089021;28;20032;-70
2023/04/14 13:00:59;;;;;;;4.93;1.92;;;18.40;93.20;;;;;;5095094;28;20035;-70
2023/04/14 13:03:36;;;;;;;3.33;1.45;;;18.90;84.30;;;;;;5092884;28;20016;-70
2023/04/14 13:06:01;;;;;;;4.13;1.70;;;19.50;67.80;;;;;;5089015;28;20036;-70
2023/04/14 13:08:27;;;;;;;3.97;1.20;;;19.50;60.20;;;;;;5089609;28;20030;-70
2023/04/14 13:10:53;;;;;;;4.15;1.10;;;;;;;;;;5093648;28;20027;-70
2023/04/14 13:13:19;;;;;;;7.05;1.58;;;20.20;60.30;;;;;;5096281;28;20077;-70
2023/04/14 13:15:45;;;;;;;7.20;1.55;;;20.50;60.50;;;;;;5092854;28;20024;-68